Time;durP1;ratioP1;P1;durP2;ratioP2;P2;SDS_P1;SDS_P2;PMS_P1;PMS_P2;Temp;Humidity;BMP_temperature;BMP_pressure;BME280_temperature;BME280_humidity;BME280_pressure;Samples;Min_cycle;Max_cycle;Signal;HPM_P1;HPM_P2
2022/09/13 07:08:33;;;;;;;5.18;4.30;;;;;;;;;;10567570;28;20164;-83
2022/09/13 07:19:11;;;;;;;6.13;4.05;;;;;;;;;;10555100;28;20141;-83
2022/09/13 07:24:13;;;;;;;6.20;4.38;;;;;;;;;;10555563;28;20040;-83
2022/09/13 07:29:17;;;;;;;7.05;3.80;;;;;;;;;;10554159;28;20032;-84
2022/09/13 07:34:41;;;;;;;4.53;3.78;;;;;;;;;;10558338;28;20091;-84
2022/09/13 07:39:46;;;;;;;5.63;3.72;;;;;;;;;;10555111;28;20055;-84
2022/09/13 07:44:47;;;;;;;6.78;5.20;;;;;;;;;;10579695;28;20031;-82
2022/09/13 07:49:49;;;;;;;7.47;6.10;;;;;;;;;;10561973;28;20070;-84
2022/09/13 08:00:31;;;;;;;7.53;6.13;;;;;;;;;;10558874;28;20488;-84
2022/09/13 08:05:48;;;;;;;10.63;6.00;;;;;;;;;;10554537;28;20085;-84
2022/09/13 08:10:51;;;;;;;7.72;6.63;;;;;;;;;;10556497;28;20502;-84
2022/09/13 08:16:07;;;;;;;8.90;6.20;;;;;;;;;;10537684;28;20127;-84
2022/09/13 08:21:08;;;;;;;8.32;6.05;;;;;;;;;;10578038;28;20020;-84
2022/09/13 08:26:10;;;;;;;7.90;6.25;;;;;;;;;;10598543;28;20055;-83
2022/09/13 08:31:16;;;;;;;9.18;6.13;;;;;;;;;;10597796;28;20054;-84
2022/09/13 08:36:22;;;;;;;11.23;7.72;;;;;;;;;;10579654;28;20390;-82
2022/09/13 08:41:44;;;;;;;9.65;7.28;;;;;;;;;;10597717;28;20031;-83
2022/09/13 08:46:45;;;;;;;9.23;5.78;;;;;;;;;;10578102;28;20035;-83
2022/09/13 08:51:52;;;;;;;9.27;6.10;;;;;;;;;;10583760;28;20074;-84
2022/09/13 08:57:18;;;;;;;6.70;5.35;;;;;;;;;;10577405;28;20066;-84
2022/09/13 09:02:47;;;;;;;8.18;5.90;;;;;;;;;;10575950;28;20032;-83
2022/09/13 09:08:11;;;;;;;8.15;6.53;;;;;;;;;;10575470;28;20040;-85
2022/09/13 09:13:18;;;;;;;11.20;6.70;;;;;;;;;;10574938;28;20020;-84
2022/09/13 09:18:32;;;;;;;7.10;4.90;;;;;;;;;;10575308;28;20035;-84
2022/09/13 09:23:53;;;;;;;7.68;5.50;;;;;;;;;;10574761;28;20020;-84
2022/09/13 09:29:05;;;;;;;10.27;6.78;;;;;;;;;;10578490;28;20425;-83
2022/09/13 09:34:21;;;;;;;9.95;7.35;;;;;;;;;;10581586;28;20425;-84
2022/09/13 09:39:28;;;;;;;8.88;7.45;;;;;;;;;;10579788;28;20077;-84
2022/09/13 09:44:39;;;;;;;21.55;16.10;;;;;;;;;;10580020;28;20080;-83
2022/09/13 09:55:35;;;;;;;8.00;6.50;;;;;;;;;;10598964;28;20031;-84
2022/09/13 10:00:46;;;;;;;8.88;6.88;;;;;;;;;;10608385;28;20036;-83
2022/09/13 10:05:48;;;;;;;9.13;6.70;;;;;;;;;;10600297;28;20031;-83
2022/09/13 10:10:53;;;;;;;8.23;6.75;;;;;;;;;;10576945;28;20123;-84
2022/09/13 10:16:02;;;;;;;9.75;7.57;;;;;;;;;;10578414;28;20028;-84
2022/09/13 10:21:19;;;;;;;10.90;9.25;;;;;;;;;;10595779;28;20027;-85
2022/09/13 10:26:21;;;;;;;10.40;7.93;;;;;;;;;;10574708;28;20031;-85
2022/09/13 10:31:27;;;;;;;8.93;7.28;;;;;;;;;;10581202;28;20043;-84
2022/09/13 10:36:31;;;;;;;10.23;7.68;;;;;;;;;;10594277;28;20019;-84
2022/09/13 10:41:37;;;;;;;10.93;7.60;;;;;;;;;;10586113;28;20016;-84
2022/09/13 10:46:41;;;;;;;11.18;7.63;;;;;;;;;;10605541;28;20095;-85
2022/09/13 10:51:42;;;;;;;8.15;5.43;;;;;;;;;;10605149;28;20069;-85
2022/09/13 10:56:44;;;;;;;8.35;6.60;;;;;;;;;;10585244;28;20028;-85
2022/09/13 11:01:53;;;;;;;9.10;6.82;;;;;;;;;;10602898;28;20110;-84
2022/09/13 11:07:02;;;;;;;8.67;6.90;;;;;;;;;;10598276;28;20034;-85
2022/09/13 11:12:03;;;;;;;;;;;;;;;;;;10581189;28;20472;-85
2022/09/13 11:17:12;;;;;;;7.90;5.88;;;;;;;;;;10584520;28;19911;-85
2022/09/13 11:22:22;;;;;;;8.75;6.97;;;;;;;;;;10584666;28;20027;-84
2022/09/13 11:27:43;;;;;;;8.38;6.78;;;;;;;;;;10584895;28;20077;-84
2022/09/13 11:32:57;;;;;;;8.32;6.53;;;;;;;;;;10581698;28;20024;-84
2022/09/13 11:38:18;;;;;;;7.43;5.90;;;;;;;;;;10581553;28;20050;-85
2022/09/13 11:43:25;;;;;;;10.85;9.45;;;;;;;;;;10585181;28;20051;-85
2022/09/13 11:48:36;;;;;;;10.63;8.02;;;;;;;;;;10610556;22;20085;-82
2022/09/13 11:53:40;;;;;;;9.82;7.43;;;;;;;;;;10612429;28;20020;-83
2022/09/13 11:58:44;;;;;;;8.70;7.80;;;;;;;;;;10578935;28;20059;-85
2022/09/13 12:03:54;;;;;;;6.50;5.55;;;;;;;;;;10563456;28;20035;-83
2022/09/13 12:09:13;;;;;;;8.07;6.35;;;;;;;;;;10568700;28;20106;-84
2022/09/13 12:14:16;;;;;;;8.80;6.85;;;;;;;;;;10565197;28;20050;-84
2022/09/13 12:19:20;;;;;;;13.93;10.93;;;;;;;;;;10561600;28;20028;-83
2022/09/13 12:24:27;;;;;;;9.93;7.43;;;;;;;;;;10565937;28;20055;-83
2022/09/13 12:29:38;;;;;;;7.95;6.90;;;;;;;;;;10563607;28;20020;-83
2022/09/13 12:34:44;;;;;;;8.40;7.50;;;;;;;;;;10559626;28;20031;-84
2022/09/13 12:40:05;;;;;;;8.45;7.50;;;;;;;;;;10561103;28;20036;-83
2022/09/13 12:45:17;;;;;;;11.57;8.57;;;;;;;;;;10557083;28;20471;-83
2022/09/13 12:50:46;;;;;;;9.32;6.78;;;;;;;;;;10558647;28;20028;-83
2022/09/13 13:24:57;;;;;;;16.90;15.23;;;;;;;;;;10568824;28;20023;-85
2022/09/13 13:36:10;;;;;;;7.53;5.63;;;;;;;;;;10568314;28;20031;-84
2022/09/13 13:47:14;;;;;;;7.68;6.85;;;;;;;;;;10566413;28;20032;-85
2022/09/13 15:14:29;;;;;;;7.30;5.85;;;;;;;;;;10569044;28;20052;-84
2022/09/13 15:53:54;;;;;;;6.35;4.10;;;;;;;;;;10478684;28;20061;-83
2022/09/13 15:58:55;;;;;;;6.63;5.75;;;;;;;;;;10480341;28;20039;-84
2022/09/13 16:04:30;;;;;;;8.40;7.35;;;;;;;;;;10546088;28;20103;-84
2022/09/13 16:09:52;;;;;;;6.65;5.95;;;;;;;;;;10488785;28;20032;-83
2022/09/13 16:14:57;;;;;;;5.40;4.88;;;;;;;;;;10545737;28;20111;-84
2022/09/13 16:31:58;;;;;;;6.28;4.88;;;;;;;;;;10577440;28;20016;-82
2022/09/13 18:23:34;;;;;;;;;;;;;;;;;;;;;
2022/09/13 18:29:03;;;;;;;3.90;2.92;;;;;;;;;;10482517;28;20038;-85
2022/09/13 18:40:21;;;;;;;3.25;2.63;;;;;;;;;;10372086;28;20030;-84
2022/09/13 18:51:39;;;;;;;4.75;2.65;;;;;;;;;;10331406;28;20039;-85
2022/09/13 19:02:32;;;;;;;3.22;2.00;;;;;;;;;;10329291;28;20015;-84
2022/09/13 19:13:30;;;;;;;2.38;1.63;;;;;;;;;;10407571;28;20034;-85
2022/09/13 19:18:32;;;;;;;3.40;1.60;;;;;;;;;;10424193;28;20029;-85
